Airfield :
LOGIN :

Register | Disclaimer

   EN    FR    IT 

 










Legend :    VFR   Marginal VFR   IFR   Intensive IFR   Very Intensive IFR
Visi :
Ceiling :
>= 8 km
>= 3000ft
5 to 8 km
1000 to 3000 ft
1500m to 5 km
500 to 1000 ft
800 to 1500m
200 to 500 ft
< 800m
< 200 ft
Symbols :   Thunderstorms  Fog  Heavy snow  Heavy precipitations  Wind > 20 kt
SIGMETs :     Misc.  Thunderstorms  Icing  Turbulence  Mountain Waves  Volcanic Ashes







- Airport Elevation : 896 ft
- IATA code : INZ


DAUI - in Salah

CURRENT METAR :
  • 260000Z 08011KT 8000 NSC 23/07 Q1015

EXPIRED METARs :
  • 252300Z 08013KT 8000 NSC 24/08 Q1014
  • 252200Z 07014KT 8000 NSC 25/08 Q1015

TAF TAF DAUI
Valid from the 26 at 00:00 until the 27 at 00:00 UTC


252300Z 2600/2624 08012KT 8000 NSC
PROB30
TEMPO 2600/2604 4000 HZ FEW040TCU
BECMG 2612/2615 20014KT
PROB40
TEMPO 2617/2620 22024KT 3000 DRSA FEW040CB
No reported NOTAMs for that airfield.



MET'MAP, your aeronautical weather chart ! - Copyright ORBIFLY December 2007 - Disclaimer

ORBIFLY MET'MAP TEAM :

Programming & Development : Alexandra Zaïnal
Concept & Development : Baudouin d'Aumeries
Co-Development & Prog : Marc-Olivier Méhu
Technical & hardware support : Manuel Goepfert

Contact : metmap@orbifly.com




SOURCES & CREDITS :

   NOAA